createdAt,value
2019-01-27T00:00:27.560Z,0.80
2019-01-27T00:01:27.552Z,0.80
2019-01-27T00:02:27.550Z,0.70
2019-01-27T00:03:27.529Z,0.70
2019-01-27T00:04:27.520Z,0.50
2019-01-27T00:05:27.530Z,0.50
2019-01-27T00:06:27.498Z,1.00
2019-01-27T00:07:27.488Z,0.60
2019-01-27T00:08:27.482Z,0.80
2019-01-27T00:09:27.473Z,0.50
2019-01-27T00:10:27.455Z,0.70
2019-01-27T00:11:27.457Z,0.90
2019-01-27T00:12:27.433Z,0.90
2019-01-27T00:13:27.423Z,0.90
2019-01-27T00:14:27.408Z,0.70
2019-01-27T00:15:27.404Z,0.70
2019-01-27T00:16:27.390Z,0.60
2019-01-27T00:17:27.389Z,0.50
2019-01-27T00:18:27.377Z,0.50
2019-01-27T00:19:27.354Z,0.80
2019-01-27T00:20:27.343Z,0.40
2019-01-27T00:21:27.337Z,1.00
2019-01-27T00:22:27.356Z,0.80
2019-01-27T00:23:27.311Z,1.10
2019-01-27T00:24:27.301Z,0.60
2019-01-27T00:25:27.287Z,0.70
2019-01-27T00:26:27.278Z,0.80
2019-01-27T00:27:27.272Z,0.60
2019-01-27T00:28:27.294Z,0.90
2019-01-27T00:29:27.247Z,0.80
2019-01-27T00:30:27.232Z,0.60
2019-01-27T00:31:27.223Z,0.70
2019-01-27T00:32:27.212Z,0.70
2019-01-27T00:33:27.215Z,0.70
2019-01-27T00:34:27.205Z,0.70
2019-01-27T00:35:27.181Z,0.70
2019-01-27T00:36:27.206Z,0.50
2019-01-27T00:37:27.162Z,0.60
2019-01-27T00:38:27.147Z,0.60
2019-01-27T00:39:27.142Z,0.60
2019-01-27T00:40:27.128Z,0.60
2019-01-27T00:41:27.115Z,0.80
2019-01-27T00:42:27.115Z,0.80
2019-01-27T00:43:27.106Z,0.50
2019-01-27T00:44:27.080Z,0.80
2019-01-27T00:45:27.079Z,0.70
2019-01-27T00:46:27.061Z,0.50
2019-01-27T00:47:27.048Z,0.80
2019-01-27T00:48:27.060Z,0.80
2019-01-27T00:49:27.029Z,0.50
2019-01-27T00:50:27.017Z,0.90
2019-01-27T00:51:27.012Z,0.50
2019-01-27T00:52:26.996Z,0.70
2019-01-27T00:53:26.985Z,0.70
2019-01-27T00:54:26.995Z,0.70
2019-01-27T00:55:26.960Z,1.20
2019-01-27T00:56:26.954Z,0.60
2019-01-27T00:57:26.947Z,0.60
2019-01-27T00:58:26.929Z,0.70
2019-01-27T00:59:26.918Z,0.80
2019-01-27T01:00:26.921Z,0.80
2019-01-27T01:01:26.896Z,0.70
2019-01-27T01:02:26.885Z,0.70
2019-01-27T01:03:26.880Z,1.00
2019-01-27T01:04:26.863Z,0.70
2019-01-27T01:05:26.871Z,0.80
2019-01-27T01:06:26.842Z,0.90
2019-01-27T01:07:26.829Z,0.60
2019-01-27T01:08:26.821Z,0.50
2019-01-27T01:09:26.816Z,0.90
2019-01-27T01:10:26.799Z,0.70
2019-01-27T01:11:26.800Z,0.60
2019-01-27T01:12:26.776Z,1.00
2019-01-27T01:13:26.768Z,0.80
2019-01-27T01:14:26.755Z,0.70
2019-01-27T01:15:26.748Z,1.00
2019-01-27T01:16:26.760Z,0.60
2019-01-27T01:17:26.720Z,0.40
2019-01-27T01:18:26.710Z,0.80
2019-01-27T01:19:26.702Z,0.80
2019-01-27T01:20:26.688Z,0.70
2019-01-27T01:21:26.682Z,0.80
2019-01-27T01:22:26.680Z,0.40
2019-01-27T01:23:26.660Z,0.50
2019-01-27T01:24:26.649Z,0.80
2019-01-27T01:25:26.635Z,0.70
2019-01-27T01:26:26.635Z,0.40
2019-01-27T01:27:26.618Z,0.60
2019-01-27T01:28:26.602Z,0.40
2019-01-27T01:29:26.590Z,1.00
2019-01-27T01:30:26.579Z,0.80
2019-01-27T01:31:28.041Z,0.70
2019-01-27T01:32:26.573Z,1.00
2019-01-27T01:33:26.554Z,0.60
2019-01-27T01:34:26.537Z,0.60
2019-01-27T01:35:26.525Z,0.70
2019-01-27T01:36:26.514Z,0.80
2019-01-27T01:37:26.535Z,0.80
2019-01-27T01:38:26.491Z,0.70
2019-01-27T01:39:26.491Z,0.90
2019-01-27T01:40:26.474Z,0.80
2019-01-27T01:41:26.462Z,0.80
2019-01-27T01:42:26.449Z,1.00
2019-01-27T01:43:26.450Z,0.90
2019-01-27T01:44:26.425Z,0.50
2019-01-27T01:45:26.423Z,1.00
2019-01-27T01:46:26.405Z,0.90
2019-01-27T01:47:26.425Z,0.70
2019-01-27T01:48:26.382Z,0.50
2019-01-27T01:49:26.373Z,0.80
2019-01-27T01:50:26.376Z,0.40
2019-01-27T01:51:26.352Z,0.60
2019-01-27T01:52:26.349Z,0.50
2019-01-27T01:53:26.351Z,0.80
2019-01-27T01:54:26.317Z,0.60
2019-01-27T01:55:26.306Z,0.80
2019-01-27T01:56:26.296Z,1.00
2019-01-27T01:57:26.285Z,0.80
2019-01-27T01:58:26.277Z,0.50
2019-01-27T01:59:26.278Z,0.60
2019-01-27T02:00:26.252Z,0.80
2019-01-27T02:01:26.241Z,0.70
2019-01-27T02:02:26.234Z,0.70
2019-01-27T02:03:26.218Z,0.60
2019-01-27T02:04:26.229Z,0.70
2019-01-27T02:05:26.198Z,0.60
2019-01-27T02:06:26.198Z,0.80
2019-01-27T02:07:26.174Z,0.70
2019-01-27T02:08:26.164Z,0.80
2019-01-27T02:09:26.154Z,0.80
2019-01-27T02:10:26.161Z,0.60
2019-01-27T02:11:26.131Z,0.70
2019-01-27T02:12:26.121Z,0.90
2019-01-27T02:13:26.132Z,0.60
2019-01-27T02:14:26.098Z,0.60
2019-01-27T02:15:26.090Z,0.60
2019-01-27T02:16:26.084Z,0.90
2019-01-27T02:17:26.066Z,1.00
2019-01-27T02:18:26.055Z,0.70
2019-01-27T02:19:26.082Z,1.10
2019-01-27T02:20:26.032Z,0.70
2019-01-27T02:21:26.025Z,0.60
2019-01-27T02:22:26.017Z,0.70
2019-01-27T02:23:26.008Z,1.10
2019-01-27T02:24:25.990Z,0.90
2019-01-27T02:25:26.015Z,1.00
2019-01-27T02:26:25.968Z,0.70
2019-01-27T02:27:25.959Z,0.70
2019-01-27T02:28:25.947Z,0.80
2019-01-27T02:29:25.942Z,1.10
2019-01-27T02:30:25.936Z,1.10
2019-01-27T02:31:25.917Z,0.60
2019-01-27T02:32:25.903Z,0.70
2019-01-27T02:33:25.908Z,0.80
2019-01-27T02:34:25.884Z,0.90
2019-01-27T02:35:25.891Z,0.80
2019-01-27T02:36:25.864Z,1.10
2019-01-27T02:37:25.882Z,0.90
2019-01-27T02:38:25.838Z,0.70
2019-01-27T02:39:25.826Z,0.70
2019-01-27T02:40:25.816Z,0.70
2019-01-27T02:41:25.806Z,1.10
2019-01-27T02:42:25.800Z,0.80
2019-01-27T02:43:25.796Z,0.80
2019-01-27T02:44:25.794Z,0.60
2019-01-27T02:45:25.791Z,0.60
2019-01-27T02:46:25.756Z,0.70
2019-01-27T02:47:25.741Z,0.90
2019-01-27T02:48:25.747Z,0.80
2019-01-27T02:49:25.725Z,0.60
2019-01-27T02:50:25.706Z,0.80
2019-01-27T02:51:25.696Z,1.30
2019-01-27T02:52:25.686Z,1.00
2019-01-27T02:53:25.705Z,0.90
2019-01-27T02:54:25.666Z,0.80
2019-01-27T02:55:25.658Z,0.90
2019-01-27T02:56:25.644Z,0.90
2019-01-27T02:57:25.631Z,0.70
2019-01-27T02:58:25.620Z,0.70
2019-01-27T02:59:25.626Z,0.80
2019-01-27T03:00:25.598Z,0.90
2019-01-27T03:01:25.592Z,0.70
2019-01-27T03:02:25.588Z,0.60
2019-01-27T03:03:25.566Z,0.70
2019-01-27T03:04:25.589Z,0.80
2019-01-27T03:05:25.555Z,0.60
2019-01-27T03:06:25.530Z,0.90
2019-01-27T03:07:25.528Z,0.50
2019-01-27T03:08:25.516Z,0.50
2019-01-27T03:09:25.576Z,0.50
2019-01-27T03:10:25.501Z,0.40
2019-01-27T03:11:25.479Z,0.40
2019-01-27T03:12:25.466Z,0.70
2019-01-27T03:13:25.477Z,0.50
2019-01-27T03:14:25.450Z,0.20
2019-01-27T03:15:25.435Z,0.50
2019-01-27T03:16:25.424Z,0.40
2019-01-27T03:17:25.411Z,0.50
2019-01-27T03:18:25.416Z,0.50
2019-01-27T03:19:25.395Z,0.70
2019-01-27T03:20:25.380Z,0.60
2019-01-27T03:21:25.368Z,0.40
2019-01-27T03:22:25.357Z,0.50
2019-01-27T03:23:25.382Z,0.30
2019-01-27T03:24:25.334Z,0.40
2019-01-27T03:25:25.327Z,0.70
2019-01-27T03:26:25.321Z,0.70
2019-01-27T03:27:25.304Z,0.60
2019-01-27T03:28:25.295Z,0.70
2019-01-27T03:29:25.292Z,0.30
2019-01-27T03:30:25.304Z,0.50
2019-01-27T03:31:25.261Z,0.50
2019-01-27T03:32:25.274Z,0.60
2019-01-27T03:33:25.238Z,0.40
2019-01-27T03:34:25.227Z,0.40
2019-01-27T03:35:25.252Z,0.50
2019-01-27T03:36:25.204Z,0.50
2019-01-27T03:37:25.195Z,0.80
2019-01-27T03:38:25.187Z,0.30
2019-01-27T03:39:25.177Z,0.40
2019-01-27T03:40:25.161Z,0.40
2019-01-27T03:41:25.162Z,0.50
2019-01-27T03:42:25.141Z,0.50
2019-01-27T03:43:25.165Z,0.60
2019-01-27T03:44:25.124Z,0.80
2019-01-27T03:45:25.106Z,0.50
2019-01-27T03:46:25.095Z,0.30
2019-01-27T03:47:25.086Z,0.40
2019-01-27T03:48:25.078Z,0.40
2019-01-27T03:49:25.077Z,0.30
2019-01-27T03:50:25.066Z,0.50
2019-01-27T03:51:25.055Z,0.60
2019-01-27T03:52:25.043Z,0.50
2019-01-27T03:53:25.019Z,0.40
2019-01-27T03:54:25.022Z,0.30
2019-01-27T03:55:24.997Z,0.60
2019-01-27T03:56:24.997Z,0.40
2019-01-27T03:57:24.976Z,0.30
2019-01-27T03:58:24.965Z,0.40
2019-01-27T03:59:24.977Z,0.60
2019-01-27T04:00:24.950Z,0.40
2019-01-27T04:01:25.343Z,0.70
2019-01-27T04:02:24.931Z,0.30
2019-01-27T04:03:24.913Z,0.80
2019-01-27T04:04:24.898Z,0.70
2019-01-27T04:05:24.911Z,0.40
2019-01-27T04:06:24.891Z,0.50
2019-01-27T04:07:24.866Z,0.40
2019-01-27T04:08:24.862Z,0.60
2019-01-27T04:09:24.854Z,1.90
2019-01-27T04:10:24.834Z,0.70
2019-01-27T04:11:24.922Z,0.80
2019-01-27T04:12:24.812Z,0.60
2019-01-27T04:13:24.801Z,0.70
2019-01-27T04:14:24.818Z,0.70
2019-01-27T04:15:24.790Z,0.70
2019-01-27T04:16:24.770Z,0.50
2019-01-27T04:17:24.770Z,0.50
2019-01-27T04:18:24.746Z,0.70
2019-01-27T04:19:24.740Z,0.70
2019-01-27T04:20:24.733Z,0.70
2019-01-27T04:21:24.737Z,0.50
2019-01-27T04:22:24.725Z,0.50
2019-01-27T04:23:24.698Z,0.70
2019-01-27T04:24:24.680Z,0.30
2019-01-27T04:25:24.679Z,0.40
2019-01-27T04:26:24.678Z,0.70
2019-01-27T04:27:24.662Z,0.60
2019-01-27T04:28:24.651Z,0.70
2019-01-27T04:29:24.640Z,0.50
2019-01-27T04:30:24.615Z,0.30
2019-01-27T04:31:24.605Z,0.40
2019-01-27T04:32:24.599Z,0.60
2019-01-27T04:33:24.618Z,0.70
2019-01-27T04:34:24.575Z,0.40
2019-01-27T04:35:24.567Z,0.70
2019-01-27T04:36:24.553Z,0.90
2019-01-27T04:37:24.538Z,0.50
2019-01-27T04:38:24.531Z,0.80
2019-01-27T04:39:24.548Z,0.40
2019-01-27T04:40:24.506Z,0.40
2019-01-27T04:41:24.493Z,0.60
2019-01-27T04:42:24.484Z,0.70
2019-01-27T04:43:24.477Z,0.60
2019-01-27T04:44:24.477Z,0.50
2019-01-27T04:45:24.481Z,0.40
2019-01-27T04:46:24.440Z,0.60
2019-01-27T04:47:24.433Z,0.30
2019-01-27T04:48:24.429Z,0.40
2019-01-27T04:49:24.410Z,0.50
2019-01-27T04:50:24.401Z,0.60
2019-01-27T04:51:24.396Z,0.70
2019-01-27T04:52:24.373Z,0.50
2019-01-27T04:53:24.361Z,0.50
2019-01-27T04:54:24.353Z,0.50
2019-01-27T04:55:24.342Z,0.70
2019-01-27T04:56:24.349Z,0.40
2019-01-27T04:57:24.320Z,0.40
2019-01-27T04:58:24.309Z,0.40
2019-01-27T04:59:24.296Z,0.40
2019-01-27T05:00:24.297Z,0.60
2019-01-27T05:01:24.288Z,0.50
2019-01-27T05:02:24.283Z,0.50
2019-01-27T05:03:24.255Z,0.50
2019-01-27T05:04:24.243Z,0.50
2019-01-27T05:05:24.234Z,0.50
2019-01-27T05:06:24.223Z,0.60
2019-01-27T05:07:24.223Z,0.40
2019-01-27T05:08:24.247Z,0.50
2019-01-27T05:09:24.192Z,0.60
2019-01-27T05:10:24.177Z,0.20
2019-01-27T05:11:24.168Z,0.50
2019-01-27T05:12:24.154Z,0.60
2019-01-27T05:13:24.146Z,0.60
2019-01-27T05:14:24.154Z,0.60
2019-01-27T05:15:24.120Z,0.90
2019-01-27T05:16:24.113Z,0.60
2019-01-27T05:17:24.106Z,0.30
2019-01-27T05:18:24.117Z,0.70
2019-01-27T05:19:24.087Z,0.40
2019-01-27T05:20:24.075Z,0.70
2019-01-27T05:21:24.062Z,0.40
2019-01-27T05:22:24.048Z,0.80
2019-01-27T05:23:24.036Z,0.70
2019-01-27T05:24:24.074Z,0.40
2019-01-27T05:25:24.015Z,0.80
2019-01-27T05:26:24.024Z,0.30
2019-01-27T05:27:25.397Z,0.60
2019-01-27T05:28:23.980Z,0.50
2019-01-27T05:29:23.982Z,0.40
2019-01-27T05:30:23.962Z,0.60
2019-01-27T05:31:23.961Z,0.70
2019-01-27T05:32:23.942Z,0.30
2019-01-27T05:33:23.925Z,0.60
2019-01-27T05:34:23.915Z,0.50
2019-01-27T05:35:23.919Z,0.40
2019-01-27T05:36:23.894Z,0.60
2019-01-27T05:37:23.917Z,0.80
2019-01-27T05:38:23.874Z,0.40
2019-01-27T05:39:23.880Z,0.50
2019-01-27T05:40:23.847Z,0.60
2019-01-27T05:41:23.837Z,0.60
2019-01-27T05:42:23.830Z,0.30
2019-01-27T05:43:23.827Z,0.50
2019-01-27T05:44:23.814Z,0.80
2019-01-27T05:45:23.804Z,0.30
2019-01-27T05:46:23.782Z,0.60
2019-01-27T05:47:23.773Z,0.50
2019-01-27T05:48:23.791Z,0.40
2019-01-27T05:49:23.747Z,0.60
2019-01-27T05:50:23.740Z,0.60
2019-01-27T05:51:23.735Z,0.40
2019-01-27T05:52:23.717Z,0.50
2019-01-27T05:53:23.717Z,0.50
2019-01-27T05:54:23.728Z,0.60
2019-01-27T05:55:23.697Z,0.40
2019-01-27T05:56:23.673Z,0.30
2019-01-27T05:57:23.665Z,0.60
2019-01-27T05:58:23.649Z,0.50
2019-01-27T05:59:23.637Z,0.60
2019-01-27T06:00:23.648Z,0.30
2019-01-27T06:01:23.617Z,0.50
2019-01-27T06:02:23.607Z,0.50
2019-01-27T06:03:23.604Z,0.50
2019-01-27T06:04:23.584Z,0.50
2019-01-27T06:05:23.572Z,0.30
2019-01-27T06:06:23.577Z,0.70
2019-01-27T06:07:23.550Z,0.70
2019-01-27T06:08:23.542Z,0.60
2019-01-27T06:09:23.540Z,0.50
2019-01-27T06:10:23.516Z,0.60
2019-01-27T06:11:23.519Z,0.50
2019-01-27T06:12:23.495Z,0.50
2019-01-27T06:13:23.486Z,0.70
2019-01-27T06:14:23.479Z,0.70
2019-01-27T06:15:23.462Z,0.50
2019-01-27T06:16:23.521Z,0.50
2019-01-27T06:17:23.442Z,0.50
2019-01-27T06:18:23.434Z,0.50
2019-01-27T06:19:23.418Z,0.50
2019-01-27T06:20:23.415Z,0.40
2019-01-27T06:21:23.412Z,0.60
2019-01-27T06:22:23.396Z,0.60
2019-01-27T06:23:23.379Z,0.50
2019-01-27T06:24:23.365Z,0.70
2019-01-27T06:25:26.067Z,0.70
2019-01-27T06:26:23.358Z,0.70
2019-01-27T06:27:23.341Z,0.70
2019-01-27T06:28:23.326Z,0.60
2019-01-27T06:29:23.312Z,0.50
2019-01-27T06:30:23.303Z,0.20
2019-01-27T06:31:23.301Z,0.60
2019-01-27T06:32:23.276Z,0.50
2019-01-27T06:33:23.302Z,0.40
2019-01-27T06:34:23.254Z,0.50
2019-01-27T06:35:23.248Z,0.60
2019-01-27T06:36:23.235Z,0.50
2019-01-27T06:37:24.842Z,0.50
2019-01-27T06:38:23.219Z,0.40
2019-01-27T06:39:23.216Z,0.50
2019-01-27T06:40:23.194Z,0.30
2019-01-27T06:41:23.178Z,0.30
2019-01-27T06:42:23.169Z,0.30
2019-01-27T06:43:23.171Z,0.40
2019-01-27T06:44:23.180Z,0.30
2019-01-27T06:45:23.135Z,0.40
2019-01-27T06:46:23.125Z,0.40
2019-01-27T06:47:23.113Z,0.50
2019-01-27T06:48:23.106Z,0.70
2019-01-27T06:49:23.091Z,0.60
2019-01-27T06:50:23.101Z,1.00
2019-01-27T06:51:23.068Z,0.90
2019-01-27T06:52:23.059Z,0.50
2019-01-27T06:53:23.046Z,0.50
2019-01-27T06:54:23.069Z,0.20
2019-01-27T06:55:23.027Z,0.50
2019-01-27T06:56:23.020Z,0.40
2019-01-27T06:57:23.005Z,0.50
2019-01-27T06:58:22.993Z,0.30
2019-01-27T06:59:22.981Z,0.40
2019-01-27T07:00:22.987Z,0.20
2019-01-27T07:01:22.960Z,0.40
2019-01-27T07:02:29.355Z,0.50
2019-01-27T07:03:23.936Z,0.60
2019-01-27T07:04:22.926Z,0.60
2019-01-27T07:05:22.928Z,0.50
2019-01-27T07:06:22.927Z,0.40
2019-01-27T07:07:22.894Z,0.40
2019-01-27T07:08:22.892Z,0.50
2019-01-27T07:09:22.871Z,0.40
2019-01-27T07:10:22.860Z,0.10
2019-01-27T07:11:22.850Z,0.50
2019-01-27T07:12:22.854Z,0.60
2019-01-27T07:13:22.830Z,0.40
2019-01-27T07:14:22.826Z,0.30
2019-01-27T07:15:22.809Z,0.40
2019-01-27T07:16:22.800Z,0.40
2019-01-27T07:17:22.829Z,0.20
2019-01-27T07:18:22.776Z,0.40
2019-01-27T07:19:22.763Z,0.20
2019-01-27T07:20:22.762Z,0.30
2019-01-27T07:21:22.743Z,0.30
2019-01-27T07:22:22.732Z,0.60
2019-01-27T07:23:22.750Z,0.50
2019-01-27T07:24:22.707Z,0.50
2019-01-27T07:25:22.697Z,0.90
2019-01-27T07:26:22.692Z,0.40
2019-01-27T07:27:22.677Z,0.70
2019-01-27T07:28:22.666Z,0.40
2019-01-27T07:29:22.673Z,0.80
2019-01-27T07:30:22.643Z,0.30
2019-01-27T07:31:22.634Z,0.40
2019-01-27T07:32:22.631Z,0.40
2019-01-27T07:33:22.609Z,0.30
2019-01-27T07:34:22.633Z,0.50
2019-01-27T07:35:22.588Z,0.60
2019-01-27T07:36:22.576Z,0.40
2019-01-27T07:37:22.568Z,0.30
2019-01-27T07:38:22.563Z,0.20
2019-01-27T07:39:22.544Z,0.30
2019-01-27T07:40:22.568Z,0.50
2019-01-27T07:41:22.525Z,0.30
2019-01-27T07:42:22.511Z,0.50
2019-01-27T07:43:22.498Z,0.40
2019-01-27T07:44:22.497Z,0.30
2019-01-27T07:45:22.478Z,0.40
2019-01-27T07:46:22.490Z,0.40
2019-01-27T07:47:22.455Z,0.40
2019-01-27T07:48:22.448Z,0.30
2019-01-27T07:49:22.432Z,0.30
2019-01-27T07:50:22.427Z,0.60
2019-01-27T07:51:22.411Z,0.30
2019-01-27T07:52:22.417Z,0.20
2019-01-27T07:53:22.394Z,0.40
2019-01-27T07:54:22.378Z,0.40
2019-01-27T07:55:22.368Z,0.50
2019-01-27T07:56:22.363Z,0.40
2019-01-27T07:57:22.358Z,0.30
2019-01-27T07:58:22.354Z,0.30
2019-01-27T07:59:22.324Z,0.40
2019-01-27T08:00:22.314Z,0.40
2019-01-27T08:01:22.300Z,0.50
2019-01-27T08:02:22.299Z,0.40
2019-01-27T08:03:22.278Z,0.50
2019-01-27T08:04:22.304Z,0.50
2019-01-27T08:05:22.261Z,0.70
2019-01-27T08:06:22.247Z,0.40
2019-01-27T08:07:22.236Z,0.50
2019-01-27T08:08:22.235Z,0.50
2019-01-27T08:09:22.214Z,0.60
2019-01-27T08:10:22.217Z,0.30
2019-01-27T08:11:22.191Z,0.60
2019-01-27T08:12:22.179Z,0.50
2019-01-27T08:13:22.168Z,0.50
2019-01-27T08:14:22.162Z,0.40
2019-01-27T08:15:22.160Z,0.40
2019-01-27T08:16:22.160Z,0.30
2019-01-27T08:17:22.125Z,0.50
2019-01-27T08:18:22.113Z,0.40
2019-01-27T08:19:22.103Z,0.40
2019-01-27T08:20:22.098Z,0.30
2019-01-27T08:21:22.083Z,0.30
2019-01-27T08:22:22.114Z,0.30
2019-01-27T08:23:22.057Z,0.50
2019-01-27T08:24:22.046Z,0.60
2019-01-27T08:25:22.035Z,0.40
2019-01-27T08:26:22.024Z,0.40
2019-01-27T08:27:22.031Z,0.30
2019-01-27T08:28:22.038Z,0.40
2019-01-27T08:29:21.991Z,0.50
2019-01-27T08:30:21.980Z,0.60
2019-01-27T08:31:21.968Z,0.90
2019-01-27T08:32:21.957Z,0.50
2019-01-27T08:33:21.955Z,0.50
2019-01-27T08:34:21.966Z,0.60
2019-01-27T08:35:21.925Z,0.50
2019-01-27T08:36:21.912Z,0.30
2019-01-27T08:37:21.903Z,0.80
2019-01-27T08:38:21.898Z,0.50
2019-01-27T08:39:21.884Z,0.30
2019-01-27T08:40:21.881Z,0.80
2019-01-27T08:41:21.868Z,0.60
2019-01-27T08:42:21.847Z,0.60
2019-01-27T08:43:21.848Z,0.60
2019-01-27T08:44:21.825Z,0.50
2019-01-27T08:45:21.817Z,0.70
2019-01-27T08:46:21.804Z,0.50
2019-01-27T08:47:21.796Z,0.40
2019-01-27T08:48:21.811Z,0.50
2019-01-27T08:49:21.769Z,0.50
2019-01-27T08:50:21.771Z,0.60
2019-01-27T08:51:21.753Z,0.30
2019-01-27T08:52:21.737Z,0.60
2019-01-27T08:53:21.725Z,0.70
2019-01-27T08:54:21.715Z,0.50
2019-01-27T08:55:21.740Z,0.40
2019-01-27T08:56:21.691Z,0.40
2019-01-27T08:57:21.687Z,0.20
2019-01-27T08:58:21.670Z,0.50
2019-01-27T08:59:21.661Z,0.70
2019-01-27T09:00:21.649Z,0.70
2019-01-27T09:01:21.649Z,0.50
2019-01-27T09:02:21.630Z,0.40
2019-01-27T09:03:21.647Z,0.60
2019-01-27T09:04:21.603Z,0.40
2019-01-27T09:05:21.594Z,0.50
2019-01-27T09:06:21.603Z,0.50
2019-01-27T09:07:21.570Z,0.30
2019-01-27T09:08:21.561Z,0.50
2019-01-27T09:09:21.562Z,0.30
2019-01-27T09:10:21.537Z,0.50
2019-01-27T09:11:21.528Z,0.40
2019-01-27T09:12:21.528Z,0.30
2019-01-27T09:13:21.503Z,0.40
2019-01-27T09:14:21.499Z,0.30
2019-01-27T09:15:21.493Z,0.50
2019-01-27T09:16:21.471Z,0.60
2019-01-27T09:17:21.476Z,0.60
2019-01-27T09:18:21.450Z,0.30
2019-01-27T09:19:21.438Z,0.40
2019-01-27T09:20:21.428Z,0.80
2019-01-27T09:21:21.434Z,0.50
2019-01-27T09:22:21.407Z,0.60
2019-01-27T09:23:21.393Z,0.40
2019-01-27T09:24:21.397Z,0.40
2019-01-27T09:25:21.374Z,0.40
2019-01-27T09:26:21.419Z,0.40
2019-01-27T09:27:21.358Z,0.50
2019-01-27T09:28:21.338Z,0.40
2019-01-27T09:29:21.352Z,0.50
2019-01-27T09:30:21.316Z,0.50
2019-01-27T09:31:21.314Z,0.30
2019-01-27T09:32:21.296Z,0.40
2019-01-27T09:33:21.307Z,0.20
2019-01-27T09:34:21.272Z,0.30
2019-01-27T09:35:21.276Z,0.50
2019-01-27T09:36:21.250Z,0.40
2019-01-27T09:37:21.245Z,0.40
2019-01-27T09:38:21.242Z,0.40
2019-01-27T09:39:21.237Z,0.50
2019-01-27T09:40:21.209Z,0.30
2019-01-27T09:41:21.197Z,0.40
2019-01-27T09:42:21.184Z,0.20
2019-01-27T09:43:21.174Z,0.50
2019-01-27T09:44:21.185Z,0.30
2019-01-27T09:45:21.155Z,0.40
2019-01-27T09:46:21.141Z,0.30
2019-01-27T09:47:21.129Z,0.30
2019-01-27T09:48:21.118Z,0.40
2019-01-27T09:49:21.106Z,0.30
2019-01-27T09:50:21.110Z,0.40
2019-01-27T09:51:21.091Z,0.40
2019-01-27T09:52:21.077Z,0.60
2019-01-27T09:53:21.068Z,0.40
2019-01-27T09:54:21.052Z,0.40
2019-01-27T09:55:21.054Z,0.30
2019-01-27T09:56:21.030Z,0.40
2019-01-27T09:57:21.025Z,0.50
2019-01-27T09:58:21.008Z,0.20
2019-01-27T09:59:21.018Z,0.40
2019-01-27T10:00:21.021Z,0.10
2019-01-27T10:01:20.973Z,0.20
2019-01-27T10:02:20.963Z,0.30
2019-01-27T10:03:20.962Z,0.40
2019-01-27T10:04:20.945Z,0.20
2019-01-27T10:05:20.932Z,0.30
2019-01-27T10:06:20.974Z,0.30
2019-01-27T10:07:20.911Z,0.40
2019-01-27T10:08:20.899Z,0.40
2019-01-27T10:09:20.908Z,0.40
2019-01-27T10:10:20.877Z,0.30
2019-01-27T10:11:26.666Z,0.30
2019-01-27T10:12:21.865Z,0.30
2019-01-27T10:13:20.844Z,0.40
2019-01-27T10:14:20.834Z,0.30
2019-01-27T10:15:20.826Z,0.40
2019-01-27T10:16:20.807Z,0.20
2019-01-27T10:17:20.810Z,0.50
2019-01-27T10:18:20.787Z,0.60
2019-01-27T10:19:20.789Z,0.50
2019-01-27T10:20:20.766Z,0.40
2019-01-27T10:21:20.757Z,0.50
2019-01-27T10:22:20.743Z,0.50
2019-01-27T10:23:20.731Z,0.40
2019-01-27T10:24:20.753Z,0.80
2019-01-27T10:25:20.710Z,0.40
2019-01-27T10:26:20.698Z,0.50
2019-01-27T10:27:20.690Z,0.40
2019-01-27T10:28:20.684Z,0.80
2019-01-27T10:29:20.665Z,0.70
2019-01-27T10:30:20.666Z,0.40
2019-01-27T10:31:20.655Z,0.30
2019-01-27T10:32:20.632Z,0.40
2019-01-27T10:33:20.621Z,0.30
2019-01-27T10:34:20.618Z,0.50
2019-01-27T10:35:20.600Z,0.70
2019-01-27T10:36:20.621Z,0.50
2019-01-27T10:37:20.574Z,0.50
2019-01-27T10:38:20.566Z,0.70
2019-01-27T10:39:20.555Z,0.50
2019-01-27T10:40:20.550Z,0.30
2019-01-27T10:41:20.533Z,0.40
2019-01-27T10:42:20.534Z,0.50
2019-01-27T10:43:20.513Z,0.20
2019-01-27T10:44:20.499Z,0.50
2019-01-27T10:45:20.488Z,0.40
2019-01-27T10:46:20.497Z,0.50
2019-01-27T10:47:20.501Z,0.40
2019-01-27T10:48:20.454Z,0.30
2019-01-27T10:49:20.443Z,0.30
2019-01-27T10:50:20.432Z,0.60
2019-01-27T10:51:20.422Z,0.40
2019-01-27T10:52:20.419Z,0.30
2019-01-27T10:53:21.033Z,0.40
2019-01-27T10:54:20.387Z,0.30
2019-01-27T10:55:20.375Z,0.60
2019-01-27T10:56:20.366Z,0.30
2019-01-27T10:57:20.356Z,0.50
2019-01-27T10:58:20.345Z,0.20
2019-01-27T10:59:20.361Z,0.30
2019-01-27T11:00:20.322Z,0.20
2019-01-27T11:01:20.310Z,0.20
2019-01-27T11:02:20.299Z,0.40
2019-01-27T11:03:20.289Z,0.30
2019-01-27T11:04:20.281Z,0.20
2019-01-27T11:05:20.277Z,0.20
2019-01-27T11:06:20.254Z,0.20
2019-01-27T11:07:20.243Z,0.30
2019-01-27T11:08:20.230Z,0.20
2019-01-27T11:09:20.221Z,0.20
2019-01-27T11:10:20.231Z,0.20
2019-01-27T11:11:20.198Z,0.30
2019-01-27T11:12:20.189Z,0.20
2019-01-27T11:13:20.200Z,0.20
2019-01-27T11:14:20.167Z,0.20
2019-01-27T11:15:20.161Z,0.20
2019-01-27T11:16:20.148Z,0.30
2019-01-27T11:17:20.132Z,0.20
2019-01-27T11:18:20.121Z,0.10
2019-01-27T11:19:20.131Z,0.10
2019-01-27T11:20:20.099Z,0.20
2019-01-27T11:21:20.086Z,0.10
2019-01-27T11:22:20.078Z,0.30
2019-01-27T11:23:20.103Z,0.40
2019-01-27T11:24:20.062Z,0.30
2019-01-27T11:25:20.047Z,0.20
2019-01-27T11:26:20.033Z,0.20
2019-01-27T11:27:20.021Z,0.10
2019-01-27T11:28:20.009Z,0.40
2019-01-27T11:29:20.010Z,0.30
2019-01-27T11:30:19.994Z,0.30
2019-01-27T11:31:19.976Z,0.10
2019-01-27T11:32:19.966Z,0.10
2019-01-27T11:33:19.956Z,0.20
2019-01-27T11:34:19.955Z,0.30
2019-01-27T11:35:19.981Z,0.20
2019-01-27T11:36:19.933Z,0.20
2019-01-27T11:37:19.911Z,0.30
2019-01-27T11:38:19.899Z,0.30
2019-01-27T11:39:19.888Z,0.30
2019-01-27T11:40:19.877Z,0.20
2019-01-27T11:41:19.908Z,0.20
2019-01-27T11:42:19.858Z,0.30
2019-01-27T11:43:19.842Z,0.10
2019-01-27T11:44:19.832Z,0.20
2019-01-27T11:45:19.820Z,0.20
2019-01-27T11:46:19.810Z,0.30
2019-01-27T11:47:19.836Z,0.20
2019-01-27T11:48:19.793Z,0.30
2019-01-27T11:49:19.778Z,0.20
2019-01-27T11:50:19.766Z,0.30
2019-01-27T11:51:19.756Z,0.20
2019-01-27T11:52:19.747Z,0.20
2019-01-27T11:53:19.755Z,0.20
2019-01-27T11:54:19.731Z,0.20
2019-01-27T11:55:19.713Z,0.10
2019-01-27T11:56:19.703Z,0.30
2019-01-27T11:57:19.688Z,0.20
2019-01-27T11:58:19.677Z,0.30
2019-01-27T11:59:19.678Z,0.20
2019-01-27T12:00:19.661Z,0.20
2019-01-27T12:01:19.647Z,0.30
2019-01-27T12:02:19.635Z,0.20
2019-01-27T12:03:19.636Z,0.20
2019-01-27T12:04:19.614Z,0.20
2019-01-27T12:05:19.601Z,0.20
2019-01-27T12:06:19.593Z,0.20
2019-01-27T12:07:19.582Z,0.10
2019-01-27T12:08:19.580Z,0.20
2019-01-27T12:09:19.556Z,0.20
2019-01-27T12:10:19.546Z,0.20
2019-01-27T12:11:19.536Z,0.10
2019-01-27T12:12:19.528Z,0.20
2019-01-27T12:13:19.557Z,0.20
2019-01-27T12:14:19.502Z,0.10
2019-01-27T12:15:19.492Z,0.20
2019-01-27T12:16:19.479Z,0.20
2019-01-27T12:17:19.469Z,0.30
2019-01-27T12:18:19.458Z,0.10
2019-01-27T12:19:19.504Z,0.20
2019-01-27T12:20:19.436Z,0.10
2019-01-27T12:21:19.424Z,0.10
2019-01-27T12:22:19.414Z,0.20
2019-01-27T12:23:19.405Z,0.20
2019-01-27T12:24:19.391Z,0.30
2019-01-27T12:25:19.394Z,0.10
2019-01-27T12:26:19.373Z,0.10
2019-01-27T12:27:19.359Z,0.10
2019-01-27T12:28:19.348Z,0.20
2019-01-27T12:29:19.338Z,0.10
2019-01-27T12:30:19.365Z,0.10
2019-01-27T12:31:19.318Z,0.20
2019-01-27T12:32:19.304Z,0.20
2019-01-27T12:33:19.296Z,0.20
2019-01-27T12:34:19.282Z,0.20
2019-01-27T12:35:19.272Z,0.10
2019-01-27T12:36:19.271Z,0.20
2019-01-27T12:37:19.248Z,0.20
2019-01-27T12:38:19.237Z,0.30
2019-01-27T12:39:19.271Z,0.20
2019-01-27T12:40:19.222Z,0.20
2019-01-27T12:41:19.240Z,0.20
2019-01-27T12:42:19.193Z,0.10
2019-01-27T12:43:19.183Z,0.20
2019-01-27T12:44:19.171Z,0.10
2019-01-27T12:45:19.161Z,0.20
2019-01-27T12:46:19.156Z,0.10
2019-01-27T12:47:19.150Z,0.20
2019-01-27T12:48:19.131Z,0.20
2019-01-27T12:49:19.129Z,0.20
2019-01-27T12:50:19.110Z,0.20
2019-01-27T12:51:19.093Z,0.20
2019-01-27T12:52:19.093Z,0.30
2019-01-27T12:53:19.075Z,0.20
2019-01-27T12:54:19.076Z,0.30
2019-01-27T12:55:19.095Z,0.20
2019-01-27T12:56:19.049Z,0.20
2019-01-27T12:57:19.029Z,0.20
2019-01-27T12:58:19.020Z,0.30
2019-01-27T12:59:19.006Z,0.10
2019-01-27T13:00:18.995Z,0.20
2019-01-27T13:01:18.996Z,0.20
2019-01-27T13:02:18.972Z,0.10
2019-01-27T13:03:18.963Z,0.30
2019-01-27T13:04:18.962Z,0.30
2019-01-27T13:05:18.937Z,0.30
2019-01-27T13:06:18.940Z,0.30
2019-01-27T13:07:18.916Z,0.30
2019-01-27T13:08:18.906Z,0.30
2019-01-27T13:09:18.902Z,0.30
2019-01-27T13:10:18.894Z,0.40
2019-01-27T13:11:18.925Z,0.40
2019-01-27T13:12:18.873Z,0.30
2019-01-27T13:13:18.851Z,0.30
2019-01-27T13:14:18.838Z,0.20
2019-01-27T13:15:18.830Z,0.20
2019-01-27T13:16:18.831Z,0.30
2019-01-27T13:17:18.837Z,0.20
2019-01-27T13:18:18.794Z,0.10